Latest Weather Observations for Bellambi

IDN60901

Issued at 7:02 am EDT Saturday 16 October 2021 (issued every 10 minutes, with the page automatically refreshed every 10 minutes)

About weather observations | Map of Sydney area stations | Latest observations for Sydney area | Other Formats
Station Details ID: 068228 Name: BELLAMBI AWS Lat: -34.37 Lon: 150.93 Height: 10.0 m
Data from the previous 72 hours. | See also: Recent months at Bellambi
Date/Time
EDT
Temp
°C
App
Temp
°C
Dew
Point
°C
Rel
Hum
%
Delta-T
°C
Wind Press
QNH
hPa
Press
MSL
hPa
Rain since
9am
mm
Dir  Spd
km/h
Gust
km/h
Spd
kts
Gust
kts
16/07:00am 15.1 10.8 5.3 52 4.6 WNW 17 37 9 20 - - 0.4
16/06:30am 15.1 10.7 5.0 51 4.7 W 17 35 9 19 - - 0.4
16/06:00am 14.9 11.4 5.4 53 4.5 W 13 22 7 12 - - 0.4
16/05:30am 15.0 12.2 5.2 52 4.6 W 9 22 5 12 - - 0.4
16/05:00am 14.8 11.3 5.3 53 4.5 N 13 19 7 10 - - 0.4
16/04:30am 14.7 10.1 5.8 55 4.2 NW 19 30 10 16 - - 0.4
16/04:00am 14.6 12.5 5.9 56 4.2 N 6 9 3 5 - - 0.4
16/03:30am 14.6 11.3 6.4 58 4.0 NNE 13 22 7 12 - - 0.4
16/03:00am 14.6 11.4 5.1 53 4.5 SSW 11 30 6 16 - - 0.4
16/02:30am 14.5 9.9 5.6 55 4.2 W 19 41 10 22 - - 0.4
16/02:00am 13.9 10.8 5.5 57 4.0 SSW 11 22 6 12 - - 0.4
16/01:30am 14.2 11.0 5.3 55 4.2 SSW 11 24 6 13 - - 0.4
16/01:00am 13.9 10.7 5.3 56 4.0 SSW 11 20 6 11 - - 0.4
16/12:30am 13.8 10.7 5.7 58 3.8 SSW 11 20 6 11 - - 0.4
16/12:00am 13.8 10.8 5.9 59 3.7 SW 11 19 6 10 - - 0.4
 
Date/Time
EDT
Temp
°C
App
Temp
°C
Dew
Point
°C
Rel
Hum
%
Delta-T
°C
Wind Press
QNH
hPa
Press
MSL
hPa
Rain since
9am
mm
Dir  Spd
km/h
Gust
km/h
Spd
kts
Gust
kts
15/11:30pm 14.1 10.3 6.0 58 3.9 W 15 33 8 18 - - 0.4
15/11:00pm 14.3 8.0 5.9 57 4.0 WNW 28 41 15 22 - - 0.4
15/10:30pm 14.3 9.7 5.7 56 4.1 WNW 19 35 10 19 - - 0.4
15/10:00pm 14.4 11.3 5.7 56 4.1 SW 11 22 6 12 - - 0.4
15/09:30pm 14.8 8.4 5.3 53 4.5 WNW 28 46 15 25 - - 0.4
15/09:00pm 15.0 10.2 5.5 53 4.5 WNW 20 30 11 16 - - 0.4
15/08:30pm 15.6 11.0 5.5 51 4.8 NW 19 30 10 16 - - 0.4
15/08:00pm 15.9 12.1 5.8 51 4.9 WNW 15 28 8 15 - - 0.4
15/07:30pm 16.4 11.9 6.0 50 5.0 NW 19 32 10 17 - - 0.4
15/07:00pm 16.7 12.9 5.6 48 5.3 W 15 24 8 13 - - 0.2
15/06:30pm 17.4 12.6 5.4 45 5.8 W 20 32 11 17 - - 0.2
15/06:00pm 18.5 13.3 5.4 42 6.4 WNW 22 33 12 18 - - 0.2
15/05:30pm 19.5 16.0 7.3 45 6.2 NW 15 24 8 13 - - 0.2
15/05:00pm 19.5 13.0 6.6 43 6.5 NW 30 43 16 23 - - 0.2
15/04:30pm 20.0 13.2 6.7 42 6.7 NW 32 44 17 24 - - 0.2
15/04:00pm 18.8 12.9 5.6 42 6.5 W 26 41 14 22 - - 0.2
15/03:30pm 20.6 14.6 5.4 37 7.5 NW 26 39 14 21 - - 0.2
15/03:00pm 19.6 12.1 6.4 42 6.6 NW 35 48 19 26 - - 0.2
15/02:38pm 20.5 13.9 7.8 44 6.6 NNW 32 50 17 27 - - 0.2
15/02:30pm 20.5 13.1 8.2 45 6.4 NNW 37 50 20 27 - - 0.2
15/02:13pm 19.1 10.6 6.9 45 6.1 NW 41 63 22 34 - - 0.2
15/02:00pm 17.0 9.8 7.6 54 4.7 NW 35 50 19 27 - - 0.2
15/01:34pm 19.8 11.3 5.1 38 7.2 NW 39 57 21 31 - - 0.2
15/01:30pm 20.4 12.8 6.0 39 7.2 NW 35 50 19 27 - - 0.2
15/01:20pm 21.7 14.8 4.7 33 8.3 NW 30 48 16 26 - - 0.2
15/01:19pm 22.0 14.9 5.4 34 8.3 NW 32 48 17 26 - - 0.2
15/01:00pm 22.1 17.2 7.1 38 7.7 NW 22 32 12 17 - - 0.2
15/12:30pm 20.7 16.4 8.0 44 6.6 NNW 20 39 11 21 - - 0.2
15/12:00pm 19.9 15.8 8.6 48 5.9 NW 20 30 11 16 - - 0.2
15/11:30am 18.2 12.4 7.9 51 5.3 NW 28 37 15 20 - - 0.2
15/11:00am 16.1 9.8 7.3 56 4.4 NW 30 39 16 21 - - 0.2
15/10:30am 14.8 8.3 8.1 64 3.4 NNW 32 43 17 23 - - 0.2
15/10:16am 13.7 7.3 8.7 72 2.5 NW 32 44 17 24 - - 0.2
15/10:00am 13.6 5.2 7.4 66 3.0 NW 41 54 22 29 - - 0.0
15/09:30am 16.1 6.9 5.4 49 5.1 WNW 43 61 23 33 - - 0.0
15/09:00am 15.8 7.4 5.4 50 5.0 WNW 39 65 21 35 - - 1.8
15/08:49am 16.2 8.2 5.5 49 5.1 WNW 37 72 20 39 - - 1.8
15/08:30am 16.6 9.1 6.4 51 5.0 WNW 35 54 19 29 - - 1.8
15/08:00am 15.9 8.8 6.3 53 4.7 WNW 33 54 18 29 - - 1.8
15/07:39am 15.4 9.1 5.9 53 4.6 W 28 52 15 28 - - 1.8
15/07:30am 15.0 9.4 5.5 53 4.5 W 24 41 13 22 - - 1.8
15/07:00am 14.7 11.4 6.3 57 4.0 WSW 13 20 7 11 - - 1.8
15/06:30am 14.2 9.8 6.6 60 3.7 WSW 19 26 10 14 - - 1.8
15/06:00am 13.8 10.7 7.1 64 3.3 WSW 13 20 7 11 - - 1.8
15/05:30am 14.0 9.7 8.0 67 3.0 WSW 20 30 11 16 - - 1.8
15/05:00am 14.5 10.5 9.1 70 2.8 WSW 20 30 11 16 - - 1.8
15/04:30am 15.2 10.7 10.2 72 2.6 WSW 24 37 13 20 - - 1.8
15/04:18am 14.9 11.5 12.4 85 1.4 W 22 30 12 16 - - 1.8
15/04:00am 14.6 14.2 14.0 96 0.3 WNW 9 13 5 7 - - 1.8
15/03:58am 14.7 14.3 14.1 96 0.3 WNW 9 13 5 7 - - 1.8
15/03:30am 15.1 15.8 14.5 96 0.3 WSW 4 7 2 4 - - 1.6
15/03:00am 15.4 15.2 14.8 96 0.3 SSW 9 13 5 7 - - 1.6
15/02:30am 15.2 14.9 14.4 95 0.5 SSW 9 11 5 6 - - 1.6
15/02:00am 15.6 16.0 14.8 95 0.5 W 6 7 3 4 - - 1.6
15/01:30am 16.0 16.3 15.0 94 0.6 WSW 7 9 4 5 - - 1.6
15/01:00am 17.1 18.7 16.0 93 0.6 NNW 2 6 1 3 - - 1.6
15/12:30am 17.5 17.9 16.2 92 0.8 N 9 13 5 7 - - 1.6
15/12:00am 18.3 18.9 16.8 91 0.9 E 9 13 5 7 - - 1.4
 
Date/Time
EDT
Temp
°C
App
Temp
°C
Dew
Point
°C
Rel
Hum
%
Delta-T
°C
Wind Press
QNH
hPa
Press
MSL
hPa
Rain since
9am
mm
Dir  Spd
km/h
Gust
km/h
Spd
kts
Gust
kts
14/11:30pm 18.3 19.1 16.3 88 1.2 NNW 7 11 4 6 - - 1.4
14/11:00pm 18.6 19.6 16.8 89 1.1 N 7 13 4 7 - - 1.4
14/10:30pm 18.8 19.3 16.6 87 1.3 N 9 13 5 7 - - 1.4
14/10:00pm 19.0 18.2 17.0 88 1.2 N 17 20 9 11 - - 1.2
14/09:30pm 18.5 17.7 17.2 92 0.8 NE 17 19 9 10 - - 1.2
14/09:10pm 18.3 17.1 17.1 93 0.7 N 19 22 10 12 - - 1.2
14/09:00pm 18.3 17.5 17.0 92 0.8 N 17 22 9 12 - - 1.2
14/08:30pm 18.7 16.6 17.2 91 0.9 NNE 24 30 13 16 - - 1.2
14/08:12pm 18.3 15.9 16.5 89 1.1 NNE 24 28 13 15 - - 1.0
14/08:03pm 18.1 15.7 16.4 90 1.0 NNE 24 32 13 17 - - 1.0
14/08:00pm 18.3 16.1 16.8 91 0.9 NNE 24 33 13 18 - - 1.0
14/07:46pm 18.2 15.6 16.9 92 0.8 NNE 26 35 14 19 - - 1.0
14/07:30pm 18.1 14.1 16.8 92 0.8 NNE 33 43 18 23 - - 1.0
14/07:00pm 18.4 14.2 17.1 92 0.8 NNE 35 43 19 23 - - 1.0
14/06:30pm 18.6 14.9 16.9 90 1.0 NNE 32 43 17 23 - - 0.8
14/06:01pm 18.3 13.9 15.7 85 1.5 NNE 33 41 18 22 - - 0.8
14/06:00pm 18.3 14.0 15.9 86 1.4 NNE 33 41 18 22 - - 0.8
14/05:46pm 18.3 13.6 16.8 91 0.9 NE 37 44 20 24 - - 0.8
14/05:43pm 18.6 14.5 17.3 92 0.8 NE 35 43 19 23 - - 0.8
14/05:30pm 18.7 15.5 17.2 91 0.9 NE 30 41 16 22 - - 0.6
14/05:00pm 18.7 15.6 17.4 92 0.8 NE 30 35 16 19 - - 0.6
14/04:30pm 18.5 15.3 17.2 92 0.8 NE 30 39 16 21 - - 0.4
14/04:08pm 18.7 14.4 16.9 89 1.1 NE 35 54 19 29 - - 0.2
14/04:00pm 18.5 15.3 17.2 92 0.8 ENE 30 52 16 28 - - 0.2
14/03:59pm 18.5 15.7 17.2 92 0.8 E 28 48 15 26 - - 0.2
14/03:43pm 18.4 16.3 17.1 92 0.8 ENE 24 30 13 16 - - 0.0
14/03:30pm 18.4 13.4 17.1 92 0.8 NE 39 48 21 26 - - 0.0
14/03:00pm 18.6 14.8 16.8 89 1.1 NE 32 39 17 21 - - 0.0
14/02:30pm 18.9 17.3 16.5 86 1.4 NNE 20 32 11 17 - - 0.0
14/02:00pm 20.2 18.0 17.0 82 1.9 NE 24 32 13 17 - - 0.0
14/01:30pm 20.5 18.8 17.3 82 2.0 NE 22 30 12 16 - - 0.0
14/01:00pm 20.0 17.3 16.6 81 2.1 NE 26 30 14 16 - - 0.0
14/12:30pm 19.9 18.2 16.3 80 2.2 ENE 20 24 11 13 - - 0.0
14/12:00pm 18.7 18.7 15.2 80 2.1 NE 9 13 5 7 - - 0.0
14/11:30am 18.1 16.0 14.8 81 1.9 NE 19 20 10 11 - - 0.0
14/11:00am 18.6 16.5 14.7 78 2.3 NE 19 22 10 12 - - 0.0
14/10:30am 19.0 16.4 14.9 77 2.4 NE 22 26 12 14 - - 0.0
14/10:00am 19.0 16.7 14.7 76 2.5 NE 20 24 11 13 - - 0.0
14/09:30am 19.0 16.9 14.7 76 2.5 ENE 19 20 10 11 - - 0.0
14/09:00am 18.5 17.4 14.4 77 2.4 NE 13 17 7 9 - - 13.0
14/08:30am 17.0 15.1 13.1 78 2.2 N 15 19 8 10 - - 13.0
14/08:00am 17.1 14.6 13.4 79 2.1 N 19 24 10 13 - - 13.0
14/07:30am 16.9 14.4 13.6 81 1.9 N 19 24 10 13 - - 13.0
14/07:00am 17.0 14.5 13.5 80 2.0 N 19 24 10 13 - - 13.0
14/06:30am 17.0 13.6 13.7 81 1.9 N 24 30 13 16 - - 13.0
14/06:00am 16.9 13.5 13.6 81 1.9 N 24 32 13 17 - - 13.0
14/05:30am 17.0 14.1 14.1 83 1.7 N 22 30 12 16 - - 13.0
14/05:00am 16.8 14.4 14.3 85 1.4 N 20 24 11 13 - - 13.0
14/04:30am 16.8 15.3 14.3 85 1.4 N 15 17 8 9 - - 13.0
14/04:00am 16.8 13.7 14.4 86 1.4 N 24 35 13 19 - - 13.0
14/03:30am 16.8 13.0 14.6 87 1.3 NNE 28 37 15 20 - - 13.0
14/03:00am 17.0 15.2 14.5 85 1.4 N 17 24 9 13 - - 13.0
14/02:30am 16.8 14.4 14.3 85 1.4 N 20 28 11 15 - - 13.0
14/02:00am 17.5 13.5 14.2 81 1.9 NNE 28 37 15 20 - - 13.0
14/01:30am 17.2 14.4 14.3 83 1.7 N 22 28 12 15 - - 13.0
14/01:00am 17.0 14.6 14.5 85 1.4 N 20 26 11 14 - - 13.0
14/12:30am 16.6 13.6 14.8 89 1.0 N 24 32 13 17 - - 13.0
14/12:00am 17.2 13.2 14.1 82 1.8 NNE 28 39 15 21 - - 13.0
 
Date/Time
EDT
Temp
°C
App
Temp
°C
Dew
Point
°C
Rel
Hum
%
Delta-T
°C
Wind Press
QNH
hPa
Press
MSL
hPa
Rain since
9am
mm
Dir  Spd
km/h
Gust
km/h
Spd
kts
Gust
kts
13/11:30pm 17.4 12.4 13.5 78 2.2 NNE 32 44 17 24 - - 13.0
13/11:00pm 17.7 12.8 13.8 78 2.2 NNE 32 41 17 22 - - 13.0
13/10:30pm 17.6 13.9 13.9 79 2.1 N 26 32 14 17 - - 13.0
13/10:00pm 17.5 14.2 14.0 80 2.0 NNE 24 32 13 17 - - 13.0
13/09:30pm 17.6 14.3 14.1 80 2.0 N 24 32 13 17 - - 13.0
13/09:00pm 17.4 14.1 13.9 80 2.0 NNE 24 32 13 17 - - 13.0
13/08:30pm 16.8 15.7 14.3 85 1.4 NNW 13 17 7 9 - - 13.0
13/08:00pm 17.0 15.6 14.5 85 1.4 N 15 19 8 10 - - 13.0
13/07:30pm 16.9 14.4 14.2 84 1.5 NNE 20 24 11 13 - - 13.0
13/07:00pm 16.9 14.4 14.2 84 1.5 N 20 28 11 15 - - 11.6
13/06:30pm 16.8 14.3 14.1 84 1.5 N 20 26 11 14 - - 6.2
13/06:00pm 16.4 14.3 14.8 90 0.9 NNE 19 22 10 12 - - 1.2
13/05:30pm 16.0 12.3 14.9 93 0.6 NNE 28 35 15 19 - - 1.2
13/05:13pm 16.0 12.2 14.7 92 0.7 NNE 28 35 15 19 - - 1.2
13/05:00pm 16.4 12.5 15.4 94 0.6 NNE 30 39 16 21 - - 1.0
13/04:30pm 16.1 12.8 15.0 93 0.6 NNE 26 41 14 22 - - 1.0
13/04:23pm 16.1 12.4 15.0 93 0.6 NE 28 37 15 20 - - 1.0
13/04:18pm 16.1 11.6 15.0 93 0.6 NE 32 39 17 21 - - 1.0
13/04:08pm 16.0 11.3 14.9 93 0.6 NE 33 39 18 21 - - 1.0
13/04:00pm 15.8 11.3 14.8 94 0.6 NE 32 39 17 21 - - 0.8
13/03:41pm 15.8 10.3 14.8 94 0.6 NE 37 46 20 25 - - 0.8
13/03:30pm 16.1 10.4 15.1 94 0.6 ENE 39 44 21 24 - - 0.8
13/03:00pm 15.4 9.1 14.6 95 0.5 ENE 41 48 22 26 - - 0.6
13/02:43pm 15.2 9.9 14.2 94 0.6 ENE 35 41 19 22 - - 0.6
13/02:34pm 15.1 9.0 14.1 94 0.6 ENE 39 46 21 25 - - 0.6
13/02:30pm 15.0 8.5 14.0 94 0.6 NE 41 52 22 28 - - 0.6
13/02:24pm 15.1 10.3 14.0 93 0.6 NE 32 52 17 28 - - 0.6
13/02:23pm 15.1 10.2 13.8 92 0.7 NE 32 52 17 28 - - 0.6
13/02:09pm 15.4 11.1 14.3 93 0.6 NE 30 39 16 21 - - 0.6
13/02:00pm 15.0 9.9 13.7 92 0.7 NE 33 43 18 23 - - 0.4
13/01:30pm 15.3 11.9 13.8 91 0.8 NE 24 33 13 18 - - 0.4
13/01:19pm 15.2 12.6 13.9 92 0.7 NE 20 26 11 14 - - 0.4
13/01:08pm 15.2 10.1 13.7 91 0.8 NE 33 43 18 23 - - 0.4
13/01:00pm 15.3 10.4 13.7 90 0.9 NE 32 43 17 23 - - 0.2
13/12:30pm 15.4 11.6 14.6 95 0.5 ENE 28 35 15 19 - - 0.2
13/12:00pm 14.6 11.2 13.6 94 0.6 ESE 24 32 13 17 - - 0.2
13/11:30am 14.2 10.6 12.9 92 0.7 ESE 24 28 13 15 - - 0.2
13/11:25am 14.3 11.1 13.0 92 0.7 ESE 22 28 12 15 - - 0.2
13/11:03am 14.7 12.2 13.4 92 0.7 ESE 19 22 10 12 - - 0.2
13/11:00am 14.5 11.9 13.2 92 0.7 ESE 19 22 10 12 - - 0.2
13/10:48am 14.3 12.0 13.0 92 0.7 ENE 17 24 9 13 - - 0.0
13/10:30am 14.0 10.6 12.4 90 0.9 ENE 22 28 12 15 - - 0.0
13/10:00am 14.9 10.8 12.6 86 1.3 NE 26 39 14 21 - - 0.0
13/09:30am 17.3 13.1 9.7 61 4.0 E 22 26 12 14 - - 0.0
13/09:00am 17.1 13.4 10.0 63 3.7 E 20 26 11 14 - - 2.2
13/08:30am 16.8 12.6 9.7 63 3.7 E 22 28 12 15 - - 2.2
13/08:00am 16.4 12.0 9.1 62 3.8 E 22 24 12 13 - - 2.2
13/07:30am 16.1 12.0 8.6 61 3.8 E 20 26 11 14 - - 2.2

Latest Capital City Observations: Canberra | Sydney | Melbourne | Brisbane | Adelaide | Perth | Hobart | Darwin

Other formats

Comma delimited format used in spreadsheet applications
http://www.bom.gov.au/fwo/IDN60901/IDN60901.94749.axf

JavaScript Object Notation format (JSON) in row-major order
http://www.bom.gov.au/fwo/IDN60901/IDN60901.94749.json

Data quality

Most of these data are generated automatically and are frequently updated. Quality checks on data are not normally performed. It is possible for incorrect values to appear. Refer to information at About Latest Weather Observations and please check the disclaimer before using these data.